Portada
METAR-TAF:

METAR-TAF

Aeropuertos :

Ciudad del Cabo, Sudáfrica

Aeropuerto Internacional de la Ciudad del Cabo

latitud: 33-59S, longitud: 018-36E, altitud: 42 m

Observación

El informe se hizo hace 17 minutos, a las 04:00 UTC
Viento 4 kt del norte
Temperatura 15°C
Humedad 82%
Presión 1014 hPa
Visibilidad 10 km o más
sin nubes por debajo de 1500 m y sin presencia de cumulonimbus.

METAR: FACT 280400Z 35004KT CAVOK 15/12 Q1014 NOSIG

Hora: 06:17 (04:17 UTC)

Pronóstico

El informe se hizo hace 6 horas y 17 minutos, a las 22:00 UTC
Pronóstico válido del 28 a las 00 UTC al 29 a las 06 UTC
Viento 3 kt con dirección variable
Visibilidad 10 km o más
sin nubes por debajo de 1500 m y sin presencia de cumulonimbus.
Probabilidad 30% :
Temporalmente
del 28 a las 03 UTC al 28 a las 05 UTC
Visibilidad: 1000 m
Niebla baja

TAF: FACT 272200Z 2800/2906 VRB03KT CAVOK PROB30 TEMPO 2803/2805 1000 MIFG TX29/2812ZTN15/2805Z

Observaciones y pronósticos meteorológicos de más de 4000 aeropuertos (mensajes METAR y TAF).

Los puntos amarillos y rojos representan las estaciones disponibles.

Ponga el ratón en el punto deseado para ver el nombre de la estación.

Haga clic para ver las observaciones y los pronósticos meteorológicos.

Para cambiar el mapa : haga clic en los botones verdes con una cruz de color negro para hacer un zoom, en el botón verde con un guión para alejar o en las flechas verdes para mapas adyacentes.


METAR-TAF: